Time;durP1;ratioP1;P1;durP2;ratioP2;P2;SDS_P1;SDS_P2;PMS_P1;PMS_P2;Temp;Humidity;BMP_temperature;BMP_pressure;BME280_temperature;BME280_humidity;BME280_pressure;Samples;Min_cycle;Max_cycle;Signal;HPM_P1;HPM_P2
2021/05/04 00:01:21;;;;;;;6.40;4.90;;;;;;;8.81;73.97;99864.61;644496;221;24838;-75
2021/05/04 00:03:49;;;;;;;7.23;5.20;;;;;;;8.77;74.76;99860.19;652600;217;24770;-75
2021/05/04 00:06:17;;;;;;;6.40;5.37;;;;;;;8.67;74.31;99858.11;655437;216;27166;-75
2021/05/04 00:08:45;;;;;;;6.67;5.10;;;;;;;9.16;73.95;99847.87;636782;218;32677;-75
2021/05/04 00:11:13;;;;;;;6.00;5.10;;;;;;;8.70;74.49;99848.74;645255;221;24804;-75
2021/05/04 00:13:40;;;;;;;5.83;5.33;;;;;;;8.63;75.26;99843.32;640879;221;24818;-75
2021/05/04 00:16:08;;;;;;;7.70;5.10;;;;;;;8.73;74.45;99842.48;641951;221;24797;-74
2021/05/04 00:18:36;;;;;;;5.37;4.87;;;;;;;8.54;75.77;99838.98;642447;221;24788;-74
2021/05/04 00:21:05;;;;;;;5.60;5.07;;;;;;;8.59;75.91;99838.57;656841;217;24826;-75
2021/05/04 00:23:32;;;;;;;6.83;5.10;;;;;;;8.55;75.50;99827.65;641837;221;24772;-76
2021/05/04 00:26:01;;;;;;;5.80;5.13;;;;;;;8.56;75.32;99821.50;659465;217;24772;-74
2021/05/04 00:28:28;;;;;;;6.73;5.70;;;;;;;8.52;75.26;99825.83;651877;217;24784;-75
2021/05/04 00:30:56;;;;;;;6.53;5.93;;;;;;;8.59;75.18;99821.72;656411;217;24777;-75
2021/05/04 00:33:24;;;;;;;10.10;5.80;;;;;;;8.29;75.96;99822.71;651807;217;25153;-75
2021/05/04 00:35:52;;;;;;;6.30;5.33;;;;;;;8.29;76.94;99816.23;655395;217;26927;-76
2021/05/04 00:38:20;;;;;;;7.37;5.80;;;;;;;8.37;76.64;99807.80;655769;216;24764;-75
2021/05/04 00:40:48;;;;;;;6.50;5.77;;;;;;;8.39;76.23;99804.59;654733;216;24779;-75
2021/05/04 00:43:16;;;;;;;6.03;5.43;;;;;;;8.35;76.10;99793.70;655793;217;24752;-75
2021/05/04 00:45:44;;;;;;;6.57;5.20;;;;;;;8.30;76.78;99796.69;655208;216;24742;-75
2021/05/04 00:48:12;;;;;;;7.10;5.90;;;;;;;8.66;75.72;99785.66;633496;221;32397;-75
2021/05/04 00:50:39;;;;;;;7.40;5.80;;;;;;;8.37;76.44;99783.19;654539;217;24769;-76
2021/05/04 00:53:07;;;;;;;7.23;5.43;;;;;;;8.30;76.60;99780.30;641399;221;24808;-75
2021/05/04 00:55:35;;;;;;;6.83;5.50;;;;;;;8.62;75.14;99776.07;649738;216;35422;-76
2021/05/04 00:58:03;;;;;;;5.53;4.73;;;;;;;8.25;76.05;99769.08;651917;217;24756;-75
2021/05/04 01:00:31;;;;;;;7.10;5.67;;;;;;;8.25;76.04;99763.89;656522;217;24812;-75
2021/05/04 01:02:59;;;;;;;7.93;5.43;;;;;;;8.21;76.53;99762.55;642796;221;24934;-75
2021/05/04 01:05:27;;;;;;;6.30;5.20;;;;;;;8.25;76.44;99754.83;652915;216;32571;-75
2021/05/04 01:07:55;;;;;;;6.20;5.60;;;;;;;8.23;76.27;99751.56;656811;216;25792;-75
2021/05/04 01:10:23;;;;;;;5.77;5.17;;;;;;;8.10;76.91;99749.77;643680;220;24797;-76
2021/05/04 01:12:51;;;;;;;8.37;5.57;;;;;;;8.02;76.84;99744.45;646896;217;24802;-74
2021/05/04 01:15:18;;;;;;;9.33;5.50;;;;;;;8.15;77.14;99740.27;658991;216;24761;-77
2021/05/04 01:17:46;;;;;;;6.33;5.63;;;;;;;8.04;76.79;99730.92;655036;216;30148;-75
2021/05/04 01:20:15;;;;;;;5.87;5.27;;;;;;;8.01;77.27;99731.98;659291;217;24746;-75
2021/05/04 01:22:42;;;;;;;5.83;5.23;;;;;;;7.95;77.01;99727.86;652825;216;24752;-75
2021/05/04 01:25:11;;;;;;;6.30;4.80;;;;;;;7.93;77.60;99722.83;643785;221;24784;-74
2021/05/04 01:27:39;;;;;;;5.90;5.30;;;;;;;7.93;77.88;99723.31;640288;221;24830;-75
2021/05/04 01:30:07;;;;;;;6.53;4.50;;;;;;;8.43;76.36;99717.83;654328;216;32515;-75
2021/05/04 01:32:35;;;;;;;5.00;4.60;;;;;;;7.87;77.26;99703.14;657834;216;24754;-75
2021/05/04 01:35:05;;;;;;;5.33;4.60;;;;;;;7.87;77.85;99701.84;654344;216;24737;-75
2021/05/04 01:37:32;;;;;;;6.87;4.50;;;;;;;7.82;77.81;99706.64;644005;222;24803;-75
2021/05/04 01:40:00;;;;;;;5.83;4.80;;;;;;;7.85;77.99;99703.28;660016;216;24775;-75
2021/05/04 01:42:28;;;;;;;5.20;4.70;;;;;;;7.85;77.47;99698.58;650100;217;24804;-75
2021/05/04 01:44:56;;;;;;;7.00;4.77;;;;;;;7.81;78.42;99690.77;656401;217;24783;-75
2021/05/04 01:47:24;;;;;;;8.23;4.53;;;;;;;7.79;77.81;99691.39;652801;217;24808;-75
2021/05/04 01:49:51;;;;;;;7.80;4.90;;;;;;;7.89;77.47;99692.19;651858;217;24747;-74
2021/05/04 01:52:19;;;;;;;4.60;4.20;;;;;;;7.93;77.86;99686.58;652825;218;24765;-75
2021/05/04 01:54:49;;;;;;;6.70;4.70;;;;;;;7.87;77.58;99686.31;652730;217;24785;-74
2021/05/04 01:57:16;;;;;;;4.53;4.13;;;;;;;7.86;78.12;99683.39;654770;217;24815;-75
2021/05/04 01:59:44;;;;;;;4.77;3.83;;;;;;;7.98;77.59;99677.08;656541;216;25876;-74
2021/05/04 02:02:12;;;;;;;6.83;3.90;;;;;;;7.97;77.13;99667.20;654064;216;24879;-75
2021/05/04 02:04:40;;;;;;;8.90;4.37;;;;;;;7.92;77.30;99666.83;639845;221;24790;-75
2021/05/04 02:07:08;;;;;;;4.90;3.87;;;;;;;8.15;76.95;99661.27;638824;221;32670;-75
2021/05/04 02:09:36;;;;;;;4.13;3.73;;;;;;;8.04;77.17;99654.52;653611;216;24813;-75
2021/05/04 02:12:04;;;;;;;4.70;4.10;;;;;;;7.98;77.22;99652.00;650937;216;24869;-74
2021/05/04 02:14:32;;;;;;;4.87;4.20;;;;;;;8.01;76.91;99645.23;652813;216;24792;-74
2021/05/04 02:17:00;;;;;;;5.30;4.20;;;;;;;7.94;76.79;99637.72;651863;217;23762;-74
2021/05/04 02:19:28;;;;;;;7.40;4.17;;;;;;;8.04;76.06;99629.92;654274;216;24762;-75
2021/05/04 02:21:56;;;;;;;4.57;4.17;;;;;;;7.99;76.64;99629.03;655255;216;24772;-75
2021/05/04 02:24:24;;;;;;;5.17;3.80;;;;;;;8.19;75.79;99625.89;646418;217;32543;-75
2021/05/04 02:26:52;;;;;;;4.73;4.33;;;;;;;8.19;76.12;99621.20;656858;217;24801;-74
2021/05/04 02:29:20;;;;;;;5.30;4.30;;;;;;;8.16;75.80;99614.98;653448;216;24812;-74
2021/05/04 02:31:47;;;;;;;4.20;3.67;;;;;;;8.49;75.01;99606.66;649682;216;32526;-75
2021/05/04 02:34:15;;;;;;;3.95;3.45;;;;;;;8.49;74.34;99606.66;644437;221;32597;-75
2021/05/04 02:36:43;;;;;;;3.80;3.40;;;;;;;8.59;73.57;99588.45;635779;221;43693;-76
2021/05/04 02:39:11;;;;;;;4.37;3.60;;;;;;;8.20;74.64;99589.96;644893;221;25823;-75
2021/05/04 02:41:39;;;;;;;4.20;3.80;;;;;;;8.24;74.36;99584.81;651825;217;25880;-75
2021/05/04 02:44:07;;;;;;;3.60;3.07;;;;;;;8.22;74.66;99576.38;658558;217;24767;-74
2021/05/04 02:46:35;;;;;;;3.60;3.30;;;;;;;8.30;74.24;99576.93;660409;217;24783;-75
2021/05/04 02:49:03;;;;;;;6.30;5.20;;;;;;;8.37;74.44;99570.73;659894;217;24793;-75
2021/05/04 02:51:31;;;;;;;3.67;3.30;;;;;;;8.41;73.98;99561.21;657533;217;24774;-75
2021/05/04 02:53:59;;;;;;;3.63;3.33;;;;;;;8.35;73.50;99559.22;655761;216;24759;-74
2021/05/04 02:56:27;;;;;;;3.33;3.03;;;;;;;8.28;73.78;99549.88;651350;216;24754;-75
2021/05/04 02:58:55;;;;;;;3.93;3.57;;;;;;;8.33;73.70;99548.16;651902;217;24785;-75
2021/05/04 03:01:23;;;;;;;3.50;2.90;;;;;;;8.41;73.04;99534.00;653049;217;24814;-75
2021/05/04 03:03:51;;;;;;;3.13;2.90;;;;;;;8.51;72.99;99536.05;652842;216;24811;-75
2021/05/04 03:06:19;;;;;;;7.63;2.83;;;;;;;8.56;73.22;99522.63;650249;218;24767;-75
2021/05/04 03:08:47;;;;;;;3.40;3.10;;;;;;;8.56;72.23;99520.86;642191;221;27954;-75
2021/05/04 03:11:15;;;;;;;7.53;2.73;;;;;;;8.53;72.49;99510.80;646948;219;24844;-75
2021/05/04 03:13:43;;;;;;;5.20;3.27;;;;;;;8.66;72.18;99509.60;645206;221;28015;-75
2021/05/04 03:16:11;;;;;;;3.33;3.03;;;;;;;8.68;72.48;99509.78;642515;222;24802;-76
2021/05/04 03:18:39;;;;;;;3.10;2.60;;;;;;;8.95;71.26;99503.66;632579;222;43503;-74
2021/05/04 03:21:07;;;;;;;3.63;2.87;;;;;;;8.74;71.73;99492.34;654657;216;25998;-74
2021/05/04 03:23:35;;;;;;;3.17;2.87;;;;;;;8.86;71.27;99485.11;650155;219;24750;-75
2021/05/04 03:26:03;;;;;;;4.90;3.07;;;;;;;8.90;71.20;99477.38;652546;219;24785;-75
2021/05/04 03:28:31;;;;;;;2.80;2.60;;;;;;;9.00;71.13;99474.17;646441;221;24814;-75
2021/05/04 03:30:59;;;;;;;2.57;2.37;;;;;;;8.94;70.91;99468.31;644399;221;24824;-74
2021/05/04 03:33:27;;;;;;;2.60;2.37;;;;;;;9.08;70.34;99466.45;642448;220;23823;-75
2021/05/04 03:35:54;;;;;;;3.00;2.80;;;;;;;9.07;71.11;99461.42;655143;216;23775;-75
2021/05/04 03:38:22;;;;;;;4.00;3.17;;;;;;;9.11;70.99;99452.36;640872;220;24869;-75
2021/05/04 03:40:51;;;;;;;2.90;2.20;;;;;;;9.20;70.24;99448.36;662282;216;24753;-75
2021/05/04 03:43:18;;;;;;;5.40;2.73;;;;;;;9.18;70.54;99446.41;640429;221;24798;-75
2021/05/04 03:45:46;;;;;;;2.33;2.13;;;;;;;9.15;69.89;99440.73;656059;217;24772;-75
2021/05/04 03:48:14;;;;;;;4.20;2.43;;;;;;;9.47;69.72;99434.84;642889;218;32711;-75
2021/05/04 03:50:42;;;;;;;2.83;2.60;;;;;;;9.33;69.58;99431.06;653440;216;24851;-75
2021/05/04 03:53:10;;;;;;;3.20;2.60;;;;;;;9.20;69.89;99432.79;658275;217;24823;-72
2021/05/04 03:55:38;;;;;;;3.07;2.47;;;;;;;9.18;70.86;99428.25;645110;221;24893;-72
2021/05/04 03:58:05;;;;;;;3.50;2.40;;;;;;;9.24;70.45;99429.39;648115;221;24767;-72
2021/05/04 04:00:33;;;;;;;3.13;2.93;;;;;;;9.32;69.66;99419.55;646598;221;24840;-72
2021/05/04 04:03:01;;;;;;;4.07;2.77;;;;;;;9.11;70.35;99427.71;651318;216;24791;-72
2021/05/04 04:05:29;;;;;;;2.60;2.40;;;;;;;9.12;71.33;99427.55;641735;221;24809;-72
2021/05/04 04:07:57;;;;;;;3.40;2.87;;;;;;;9.15;70.73;99425.97;643773;221;24835;-72
2021/05/04 04:10:25;;;;;;;2.70;2.50;;;;;;;9.15;71.66;99425.97;643334;221;24803;-72
2021/05/04 04:12:53;;;;;;;3.23;2.50;;;;;;;9.29;71.01;99411.59;652705;217;24783;-72
2021/05/04 04:15:21;;;;;;;3.17;2.63;;;;;;;9.25;70.28;99406.37;654150;216;23834;-72
2021/05/04 04:17:49;;;;;;;2.47;2.20;;;;;;;9.53;69.74;99402.56;633499;221;32703;-72
2021/05/04 04:20:16;;;;;;;4.40;2.77;;;;;;;9.55;70.49;99402.89;640201;222;24805;-72
2021/05/04 04:22:44;;;;;;;3.33;2.60;;;;;;;9.59;70.12;99391.24;637904;222;24811;-72
2021/05/04 04:25:13;;;;;;;2.90;2.20;;;;;;;9.66;69.86;99393.03;641079;221;24810;-73
2021/05/04 04:27:41;;;;;;;3.80;2.07;;;;;;;9.76;69.27;99384.61;656249;216;24775;-72
2021/05/04 04:30:11;;;;;;;1.90;1.80;;;;;;;9.76;68.98;99376.02;654001;217;24805;-72
2021/05/04 04:32:40;;;;;;;2.90;2.37;;;;;;;9.64;69.00;99388.97;654344;217;24757;-72
2021/05/04 04:35:08;;;;;;;2.90;2.03;;;;;;;9.69;69.80;99374.53;657786;215;24762;-72
2021/05/04 04:37:36;;;;;;;7.53;3.97;;;;;;;9.67;69.59;99380.37;655056;216;24801;-72
2021/05/04 04:40:04;;;;;;;2.60;2.40;;;;;;;9.66;69.50;99377.94;653452;216;23800;-72
2021/05/04 04:42:32;;;;;;;2.67;2.47;;;;;;;9.61;70.21;99376.31;649792;220;24883;-72
2021/05/04 04:45:00;;;;;;;5.83;2.10;;;;;;;9.50;70.43;99375.64;652575;216;24779;-72
2021/05/04 04:47:28;;;;;;;2.50;2.30;;;;;;;9.44;71.12;99377.58;654711;216;24763;-72
2021/05/04 04:49:56;;;;;;;3.00;2.67;;;;;;;9.37;71.27;99384.84;655793;216;24812;-72
2021/05/04 04:52:24;;;;;;;2.80;2.47;;;;;;;9.24;71.64;99387.88;656373;217;24781;-73
2021/05/04 04:54:52;;;;;;;6.90;2.60;;;;;;;9.29;71.72;99384.35;653717;217;24770;-73
2021/05/04 04:57:20;;;;;;;2.50;2.30;;;;;;;9.30;72.37;99379.97;653381;217;24787;-72
2021/05/04 04:59:49;;;;;;;2.93;2.47;;;;;;;9.44;71.22;99380.66;653801;217;32666;-72
2021/05/04 05:02:17;;;;;;;3.87;2.50;;;;;;;9.39;71.61;99385.01;651311;217;32557;-71
2021/05/04 05:04:45;;;;;;;3.17;2.33;;;;;;;9.31;71.44;99385.48;656798;216;23982;-71
2021/05/04 05:07:13;;;;;;;3.10;2.90;;;;;;;9.29;71.83;99396.03;654221;216;24822;-72
2021/05/04 05:09:41;;;;;;;3.90;2.97;;;;;;;9.18;73.08;99391.92;651255;217;25076;-72
2021/05/04 05:12:09;;;;;;;3.60;3.00;;;;;;;9.21;73.02;99384.31;656431;216;24822;-72
2021/05/04 05:14:38;;;;;;;2.90;2.60;;;;;;;9.23;72.88;99388.86;646849;216;32605;-72
2021/05/04 05:17:05;;;;;;;3.83;3.07;;;;;;;9.21;73.52;99384.31;649562;221;23943;-72
2021/05/04 05:19:33;;;;;;;3.10;2.80;;;;;;;9.38;72.87;99379.49;637627;221;32787;-72
2021/05/04 05:22:02;;;;;;;5.53;2.93;;;;;;;9.35;72.74;99395.39;646506;221;25835;-72
2021/05/04 05:24:29;;;;;;;3.37;2.70;;;;;;;9.25;73.77;99394.70;642065;221;24818;-72
2021/05/04 05:26:57;;;;;;;4.70;2.70;;;;;;;9.28;73.07;99405.23;651125;219;25919;-72
2021/05/04 05:29:25;;;;;;;4.30;3.10;;;;;;;9.22;73.58;99397.61;654232;217;24819;-72
2021/05/04 05:31:53;;;;;;;5.73;3.50;;;;;;;9.25;73.73;99404.27;658890;217;24766;-71
2021/05/04 05:37:02;;;;;;;4.20;2.52;;;;;;;9.43;72.65;99394.13;643765;216;32779;-74
2021/05/04 05:39:30;;;;;;;3.13;2.70;;;;;;;9.51;72.77;99392.83;642980;223;23684;-73
2021/05/04 05:41:58;;;;;;;6.20;2.70;;;;;;;9.62;71.93;99387.02;644941;220;39036;-73
2021/05/04 05:44:25;;;;;;;3.70;2.77;;;;;;;9.70;72.28;99381.34;637201;222;24817;-73
2021/05/04 05:46:53;;;;;;;3.07;2.70;;;;;;;9.85;71.59;99373.73;636635;225;25959;-73
2021/05/04 05:49:21;;;;;;;3.10;2.77;;;;;;;10.10;71.47;99369.36;636918;225;24805;-73
2021/05/04 05:51:49;;;;;;;8.30;2.30;;;;;;;10.29;70.47;99359.98;649849;220;24798;-71
2021/05/04 05:54:17;;;;;;;5.80;2.77;;;;;;;10.30;69.69;99354.30;643850;221;32500;-73
2021/05/04 05:56:45;;;;;;;3.97;2.37;;;;;;;10.47;68.78;99342.88;638434;219;27977;-73
2021/05/04 05:59:12;;;;;;;2.77;1.97;;;;;;;10.68;67.44;99332.73;635262;225;24869;-73
2021/05/04 06:01:40;;;;;;;6.73;2.60;;;;;;;11.05;67.41;99321.39;637446;225;25299;-74
2021/05/04 06:04:08;;;;;;;2.77;2.40;;;;;;;11.10;65.72;99319.08;649223;221;24761;-74
2021/05/04 06:06:36;;;;;;;2.57;2.20;;;;;;;11.24;65.26;99324.36;645692;220;24839;-71
2021/05/04 06:09:04;;;;;;;2.23;2.03;;;;;;;11.34;65.62;99309.03;636057;225;24874;-71
2021/05/04 06:11:32;;;;;;;2.93;2.10;;;;;;;11.51;64.66;99313.95;637414;225;24797;-74
2021/05/04 06:14:00;;;;;;;4.13;2.20;;;;;;;11.55;64.82;99306.63;636234;221;24805;-71
2021/05/04 06:16:28;;;;;;;4.30;2.10;;;;;;;11.64;64.16;99302.95;644978;221;32581;-71
2021/05/04 06:18:56;;;;;;;5.20;2.23;;;;;;;11.78;64.37;99293.56;636349;225;23704;-71
2021/05/04 06:21:24;;;;;;;3.70;2.30;;;;;;;11.77;63.94;99294.06;636705;225;24850;-71
2021/05/04 06:23:52;;;;;;;10.63;2.77;;;;;;;11.83;63.07;99288.20;636192;225;24851;-71
2021/05/04 06:26:21;;;;;;;2.90;1.93;;;;;;;12.05;62.58;99289.12;648925;221;25102;-71
2021/05/04 06:28:49;;;;;;;5.33;2.53;;;;;;;12.30;62.40;99284.48;643950;221;33096;-71
2021/05/04 06:31:16;;;;;;;3.77;2.87;;;;;;;12.54;61.72;99276.09;637505;224;24849;-71
2021/05/04 06:33:44;;;;;;;5.07;2.70;;;;;;;12.76;61.81;99274.66;648979;220;24774;-71
2021/05/04 06:36:11;;;;;;;5.03;1.93;;;;;;;12.67;60.75;99273.66;649497;220;24787;-71
2021/05/04 06:38:39;;;;;;;2.00;1.90;;;;;;;13.01;61.01;99266.02;636520;225;23877;-71
2021/05/04 06:41:07;;;;;;;2.67;2.00;;;;;;;13.38;60.85;99256.89;636555;225;24869;-71
2021/05/04 06:43:35;;;;;;;4.20;1.83;;;;;;;13.40;59.65;99254.40;648701;219;24764;-71
2021/05/04 06:46:04;;;;;;;4.87;1.83;;;;;;;13.34;59.60;99250.70;637108;225;24806;-71
2021/05/04 06:48:31;;;;;;;2.10;1.90;;;;;;;13.35;59.89;99255.44;637927;224;24843;-71
2021/05/04 06:50:59;;;;;;;2.20;2.00;;;;;;;13.51;59.94;99243.92;648840;221;25987;-71
2021/05/04 06:53:27;;;;;;;3.77;2.43;;;;;;;13.62;59.25;99244.23;634018;225;24867;-71
2021/05/04 06:55:54;;;;;;;1.97;1.77;;;;;;;13.61;58.53;99238.69;650467;220;24846;-71
2021/05/04 06:58:22;;;;;;;3.80;2.07;;;;;;;13.96;58.17;99240.08;647216;221;24771;-71
2021/05/04 07:00:50;;;;;;;2.20;2.00;;;;;;;13.79;58.76;99246.56;637721;225;24804;-71
2021/05/04 07:03:18;;;;;;;7.50;1.80;;;;;;;13.78;57.68;99229.27;648963;221;24759;-71
2021/05/04 07:05:46;;;;;;;3.00;1.93;;;;;;;14.13;56.36;99234.04;636640;225;24837;-71
2021/05/04 07:08:14;;;;;;;3.50;2.10;;;;;;;14.10;56.22;99238.35;631583;225;32711;-71
2021/05/04 07:13:15;;;;;;;4.63;1.73;;;;;;;14.56;55.74;99230.77;647896;218;30758;-71
2021/05/04 07:15:44;;;;;;;3.53;2.13;;;;;;;14.33;54.79;99214.52;640007;224;24779;-71
2021/05/04 07:18:11;;;;;;;3.70;2.03;;;;;;;14.42;54.97;99206.83;626844;225;23871;-71
2021/05/04 07:20:39;;;;;;;4.33;1.80;;;;;;;14.75;54.95;99216.94;648367;218;24763;-71
2021/05/04 07:23:09;;;;;;;1.97;1.57;;;;;;;14.45;54.33;99203.84;638978;225;25007;-71
2021/05/04 07:25:35;;;;;;;4.95;1.90;;;;;;;14.55;54.58;99210.84;640501;221;32437;-71
2021/05/04 07:28:03;;;;;;;5.00;1.80;;;;;;;14.79;54.33;99205.09;627657;225;32660;-71
2021/05/04 07:30:32;;;;;;;4.90;1.80;;;;;;;14.95;53.65;99207.05;637697;225;23704;-71
2021/05/04 07:32:59;;;;;;;10.43;1.93;;;;;;;14.99;54.31;99209.56;648010;221;24985;-71
2021/05/04 07:35:27;;;;;;;2.15;1.75;;;;;;;15.20;53.75;99205.48;633319;223;32570;-71
2021/05/04 07:37:55;;;;;;;2.20;1.70;;;;;;;15.31;52.42;99202.25;649175;221;23655;-71
2021/05/04 07:40:23;;;;;;;5.23;1.90;;;;;;;15.35;53.37;99202.17;649459;221;24787;-71
2021/05/04 07:42:51;;;;;;;2.10;1.90;;;;;;;16.02;53.25;99215.54;636783;225;24856;-71
2021/05/04 07:45:19;;;;;;;5.03;1.53;;;;;;;15.98;51.83;99196.49;647609;220;24740;-71
2021/05/04 07:47:54;;;;;;;5.23;1.60;;;;;;;15.84;52.20;99208.02;649822;220;24819;-71
2021/05/04 07:50:16;;;;;;;10.30;2.00;;;;;;;15.40;50.61;99182.70;629887;225;43365;-71
2021/05/04 07:52:44;;;;;;;59.27;6.60;;;;;;;15.42;46.04;99176.76;636942;222;24918;-71
2021/05/04 07:55:12;;;;;;;19.20;2.03;;;;;;;15.69;48.71;99154.49;636554;225;23833;-71
2021/05/04 07:57:40;;;;;;;9.57;1.70;;;;;;;15.41;47.06;99160.73;649204;221;24750;-71
2021/05/04 08:00:08;;;;;;;11.00;1.40;;;;;;;15.19;45.89;99151.45;634968;224;27981;-71
2021/05/04 08:02:36;;;;;;;11.50;1.87;;;;;;;15.13;45.74;99167.48;634893;225;24835;-71
2021/05/04 08:05:05;;;;;;;10.93;1.60;;;;;;;15.28;44.76;99129.80;641658;221;32464;-71
2021/05/04 08:07:33;;;;;;;6.03;1.40;;;;;;;15.43;45.20;99157.41;636468;225;24834;-71
2021/05/04 08:10:00;;;;;;;6.57;1.70;;;;;;;15.11;45.46;99152.47;636613;225;24886;-72
2021/05/04 08:12:28;;;;;;;29.67;2.93;;;;;;;15.25;45.06;99124.97;647896;220;24749;-71
2021/05/04 08:14:56;;;;;;;1.73;1.23;;;;;;;15.23;45.38;99165.78;647757;220;23757;-71
2021/05/04 08:17:28;;;;;;;6.33;1.10;;;;;;;15.02;44.72;99165.95;631939;225;24845;-71
2021/05/04 08:19:52;;;;;;;2.43;1.37;;;;;;;15.07;45.28;99146.03;647748;220;24735;-71
2021/05/04 08:22:20;;;;;;;3.80;1.20;;;;;;;14.96;44.84;99183.28;649877;218;24785;-71
2021/05/04 08:24:48;;;;;;;5.00;1.40;;;;;;;14.92;44.37;99170.76;631750;224;32546;-71
2021/05/04 08:27:15;;;;;;;227.50;16.50;;;;;;;14.89;44.60;99148.91;645398;221;23722;-71
2021/05/04 08:29:43;;;;;;;7.30;1.90;;;;;;;14.93;45.44;99152.77;645154;220;32723;-71
2021/05/04 08:32:11;;;;;;;5.77;1.87;;;;;;;14.91;45.22;99154.75;643055;220;23663;-71
2021/05/04 08:34:39;;;;;;;8.83;1.80;;;;;;;14.31;48.05;99183.33;636139;221;32685;-71
2021/05/04 08:37:07;;;;;;;1.67;1.23;;;;;;;14.21;50.88;99198.56;648553;218;23718;-70
2021/05/04 08:39:35;;;;;;;2.93;1.30;;;;;;;13.63;55.07;99234.58;644695;221;24798;-71
2021/05/04 08:42:03;;;;;;;9.53;1.20;;;;;;;13.17;58.01;99241.98;643296;221;27341;-70
2021/05/04 08:44:31;;;;;;;2.10;1.60;;;;;;;12.82;57.85;99286.68;633913;225;24867;-73
2021/05/04 08:46:59;;;;;;;3.30;1.40;;;;;;;12.56;60.74;99274.91;646365;221;24817;-73
2021/05/04 08:49:27;;;;;;;1.33;1.23;;;;;;;12.43;61.77;99304.23;639056;223;24837;-72
2021/05/04 08:51:56;;;;;;;2.63;1.13;;;;;;;12.31;62.92;99324.41;641079;223;24814;-73
2021/05/04 08:54:22;;;;;;;3.10;1.57;;;;;;;12.19;64.28;99334.45;636890;225;24834;-72
2021/05/04 08:56:50;;;;;;;2.10;1.90;;;;;;;12.20;64.34;99347.80;636253;225;24891;-73
2021/05/04 08:59:18;;;;;;;1.30;1.20;;;;;;;12.29;63.12;99342.84;631257;224;24857;-73
2021/05/04 09:01:46;;;;;;;3.83;1.63;;;;;;;12.30;65.11;99345.76;647046;221;24832;-73
2021/05/04 09:04:26;;;;;;;3.87;1.17;;;;;;;12.29;63.54;99357.17;647846;221;24859;-72
2021/05/04 09:06:56;;;;;;;4.50;1.23;;;;;;;12.39;63.10;99349.11;647317;220;24755;-73
2021/05/04 09:09:26;;;;;;;3.43;1.43;;;;;;;12.52;61.39;99341.94;636253;225;24800;-72
2021/05/04 09:11:59;;;;;;;5.27;1.50;;;;;;;12.55;61.51;99335.09;639045;223;24841;-72
2021/05/04 09:14:36;;;;;;;2.30;1.10;;;;;;;12.78;60.84;99330.07;631211;225;24809;-73
2021/05/04 09:17:07;;;;;;;1.57;1.20;;;;;;;12.93;60.12;99316.20;648749;220;24754;-73
2021/05/04 09:19:38;;;;;;;1.63;1.00;;;;;;;13.38;60.57;99319.57;651759;220;24747;-71
2021/05/04 09:22:03;;;;;;;3.00;1.30;;;;;;;13.27;60.28;99326.08;650658;220;24753;-71
2021/05/04 09:24:33;;;;;;;12.63;1.60;;;;;;;13.31;59.11;99319.48;639653;221;25855;-71
2021/05/04 09:27:00;;;;;;;4.97;1.53;;;;;;;13.30;60.19;99320.48;648868;221;24752;-74
2021/05/04 09:29:29;;;;;;;7.93;1.63;;;;;;;13.32;60.72;99315.37;647324;221;26889;-71
2021/05/04 09:32:13;;;;;;;1.23;1.13;;;;;;;13.38;60.14;99326.91;637374;225;24854;-73
2021/05/04 09:34:46;;;;;;;1.77;1.30;;;;;;;13.50;61.01;99308.92;637062;222;24876;-72
2021/05/04 09:37:31;;;;;;;1.93;1.40;;;;;;;13.63;60.29;99338.59;648648;220;24747;-71
2021/05/04 09:40:16;;;;;;;3.70;1.20;;;;;;;13.47;61.13;99344.06;637606;224;23820;-71
2021/05/04 09:42:45;;;;;;;1.37;1.27;;;;;;;13.32;61.53;99347.22;644979;221;23837;-72
2021/05/04 09:45:22;;;;;;;3.33;1.20;;;;;;;13.17;62.24;99367.30;638798;224;26959;-71
2021/05/04 09:48:16;;;;;;;8.83;1.50;;;;;;;13.05;61.66;99335.12;638316;224;27055;-71
2021/05/04 09:50:56;;;;;;;2.33;1.17;;;;;;;12.76;62.51;99346.91;635206;225;28011;-73
2021/05/04 09:53:23;;;;;;;5.53;1.40;;;;;;;12.95;63.99;99364.64;647941;220;24747;-73
2021/05/04 09:55:54;;;;;;;2.00;1.30;;;;;;;13.08;63.78;99354.34;639691;225;25373;-73
2021/05/04 09:58:32;;;;;;;4.10;1.20;;;;;;;12.73;64.24;99370.75;644529;220;32454;-72
2021/05/04 10:01:00;;;;;;;1.30;1.20;;;;;;;13.10;63.76;99366.42;638017;225;26987;-73
2021/05/04 10:03:28;;;;;;;3.00;1.37;;;;;;;12.95;62.96;99369.02;649627;220;24732;-73
2021/05/04 10:05:57;;;;;;;7.15;1.55;;;;;;;12.68;63.71;99350.92;641514;220;32398;-73
2021/05/04 10:08:27;;;;;;;1.93;1.37;;;;;;;12.52;62.92;99366.72;647974;220;23617;-72
2021/05/04 10:10:58;;;;;;;1.30;1.20;;;;;;;12.61;62.78;99354.73;648858;220;24742;-73
2021/05/04 10:13:27;;;;;;;2.60;1.27;;;;;;;12.71;63.86;99344.03;638250;224;24774;-72
2021/05/04 10:15:55;;;;;;;4.03;1.57;;;;;;;12.72;63.28;99359.51;641211;221;43208;-73
2021/05/04 10:18:23;;;;;;;2.83;1.30;;;;;;;12.71;62.47;99367.52;634494;222;24775;-73
2021/05/04 10:20:52;;;;;;;3.00;1.50;;;;;;;12.66;62.08;99369.34;648169;221;24759;-73
2021/05/04 10:23:20;;;;;;;3.17;1.70;;;;;;;12.68;62.25;99347.82;634027;225;25996;-73
2021/05/04 10:25:48;;;;;;;2.50;1.20;;;;;;;12.85;62.80;99351.05;646562;221;27960;-73
2021/05/04 10:28:16;;;;;;;1.30;1.10;;;;;;;12.84;62.37;99345.52;647133;221;24725;-73
2021/05/04 10:30:44;;;;;;;3.73;1.80;;;;;;;12.81;62.79;99342.44;638596;225;24955;-73
2021/05/04 10:33:25;;;;;;;4.90;1.60;;;;;;;12.97;62.46;99352.22;627903;225;32942;-72
2021/05/04 10:35:54;;;;;;;2.27;1.47;;;;;;;13.05;61.59;99346.06;629954;225;32571;-70
2021/05/04 10:38:21;;;;;;;2.23;1.40;;;;;;;13.05;62.29;99344.27;650810;220;23656;-72
2021/05/04 10:40:49;;;;;;;2.13;1.37;;;;;;;13.09;62.42;99346.04;648913;220;27939;-73
2021/05/04 10:43:28;;;;;;;1.53;1.20;;;;;;;13.13;60.74;99333.42;635046;225;25089;-73
2021/05/04 10:45:55;;;;;;;2.80;1.40;;;;;;;13.06;61.92;99335.94;637301;224;24887;-74
2021/05/04 10:48:37;;;;;;;2.73;1.47;;;;;;;13.32;63.27;99353.75;636742;225;25102;-70
2021/05/04 10:51:07;;;;;;;2.30;1.70;;;;;;;12.98;63.58;99356.44;631590;224;33044;-73
2021/05/04 10:53:56;;;;;;;1.40;1.20;;;;;;;13.31;62.63;99357.36;649454;220;24723;-73
2021/05/04 10:56:31;;;;;;;2.50;1.23;;;;;;;13.44;62.49;99369.26;647649;220;25173;-73
2021/05/04 10:58:59;;;;;;;1.30;1.10;;;;;;;13.92;62.18;99368.22;649745;220;24770;-73
2021/05/04 11:01:27;;;;;;;1.50;1.40;;;;;;;13.62;61.56;99360.50;638165;224;24783;-73
2021/05/04 11:03:56;;;;;;;2.40;1.50;;;;;;;13.99;61.25;99347.38;651122;219;24724;-73
2021/05/04 11:06:35;;;;;;;3.60;1.30;;;;;;;14.06;61.84;99362.11;649031;220;25811;-73
2021/05/04 11:09:22;;;;;;;2.07;1.40;;;;;;;14.32;62.27;99356.77;636660;225;24783;-73
2021/05/04 11:11:50;;;;;;;1.33;1.23;;;;;;;14.63;60.70;99356.41;631335;225;23824;-72
2021/05/04 11:14:26;;;;;;;2.77;1.60;;;;;;;14.27;61.56;99349.52;636815;225;24816;-73
2021/05/04 11:17:02;;;;;;;1.73;1.40;;;;;;;13.94;62.50;99358.41;643477;221;25941;-72
2021/05/04 11:19:31;;;;;;;1.70;1.50;;;;;;;14.36;62.83;99353.61;643446;221;24838;-72
2021/05/04 11:22:05;;;;;;;2.07;1.87;;;;;;;14.47;61.87;99364.86;642857;220;24778;-70
2021/05/04 11:24:37;;;;;;;4.57;1.77;;;;;;;13.81;64.78;99380.00;648538;221;23791;-70
2021/05/04 11:27:18;;;;;;;2.70;1.60;;;;;;;13.70;65.22;99392.75;636325;225;24825;-72
2021/05/04 11:29:46;;;;;;;7.70;1.47;;;;;;;14.15;63.60;99384.52;646842;220;24763;-72
2021/05/04 11:32:13;;;;;;;2.20;2.00;;;;;;;13.59;66.26;99400.06;640652;223;23836;-73
2021/05/04 11:34:42;;;;;;;1.60;1.50;;;;;;;13.42;66.38;99399.98;635061;225;23833;-73
2021/05/04 11:37:10;;;;;;;2.80;1.70;;;;;;;13.41;67.58;99435.43;646587;221;24772;-73
2021/05/04 11:39:37;;;;;;;2.10;1.90;;;;;;;13.64;68.46;99415.99;635401;225;24813;-72
2021/05/04 11:42:05;;;;;;;2.00;1.90;;;;;;;13.62;67.53;99412.76;636712;225;24793;-73
2021/05/04 11:44:33;;;;;;;2.73;1.77;;;;;;;13.71;67.44;99420.50;640826;222;24800;-73
2021/05/04 11:47:12;;;;;;;4.50;1.90;;;;;;;13.48;69.05;99426.66;636778;225;24792;-72
2021/05/04 11:49:40;;;;;;;3.63;1.73;;;;;;;13.23;70.35;99444.92;646643;221;26951;-73